createdAt,value
2023-04-09T00:01:28.139Z,99446.77
2023-04-09T00:03:57.004Z,99444.27
2023-04-09T00:06:26.117Z,99447.02
2023-04-09T00:08:54.625Z,99446.48
2023-04-09T00:11:23.296Z,99447.30
2023-04-09T00:13:52.581Z,99449.14
2023-04-09T00:16:21.200Z,99448.45
2023-04-09T00:18:49.790Z,99444.38
2023-04-09T00:21:18.449Z,99440.49
2023-04-09T00:23:47.128Z,99440.29
2023-04-09T00:26:16.011Z,99443.66
2023-04-09T00:28:44.490Z,99442.73
2023-04-09T00:31:13.627Z,99444.36
2023-04-09T00:33:43.242Z,99446.29
2023-04-09T00:36:13.448Z,99443.80
2023-04-09T00:38:42.210Z,99442.83
2023-04-09T00:41:13.461Z,99435.77
2023-04-09T00:43:42.133Z,99435.18
2023-04-09T00:46:11.065Z,99434.88
2023-04-09T00:48:40.122Z,99438.63
2023-04-09T00:51:08.497Z,99438.36
2023-04-09T00:53:37.598Z,99438.04
2023-04-09T00:56:07.093Z,99435.64
2023-04-09T00:58:41.119Z,99434.59
2023-04-09T01:01:09.428Z,99437.55
2023-04-09T01:03:39.461Z,99443.34
2023-04-09T01:06:58.472Z,99439.21
2023-04-09T01:09:37.391Z,99443.55
2023-04-09T01:12:34.785Z,99441.36
2023-04-09T01:15:07.772Z,99442.77
2023-04-09T01:17:52.760Z,99446.73
2023-04-09T01:20:42.686Z,99445.84
2023-04-09T01:23:11.269Z,99450.70
2023-04-09T01:26:02.801Z,99447.96
2023-04-09T01:28:57.204Z,99447.60
2023-04-09T01:31:28.825Z,99445.05
2023-04-09T01:33:57.561Z,99447.63
2023-04-09T01:36:26.002Z,99448.42
2023-04-09T01:38:54.727Z,99443.79
2023-04-09T01:41:23.482Z,99441.13
2023-04-09T01:43:52.372Z,99437.61
2023-04-09T01:46:22.014Z,99440.12
2023-04-09T01:48:51.181Z,99440.90
2023-04-09T01:51:20.592Z,99437.33
2023-04-09T01:53:49.697Z,99434.63
2023-04-09T01:56:18.053Z,99435.14
2023-04-09T01:58:47.456Z,99437.59
2023-04-09T02:01:35.377Z,99444.81
2023-04-09T02:04:05.555Z,99451.33
2023-04-09T02:06:54.478Z,99448.87
2023-04-09T02:09:22.732Z,99446.54
2023-04-09T02:11:52.248Z,99447.06
2023-04-09T02:14:26.880Z,99445.40
2023-04-09T02:16:56.803Z,99444.25
2023-04-09T02:19:25.066Z,99447.62
2023-04-09T02:21:58.873Z,99446.35
2023-04-09T02:24:27.557Z,99452.31
2023-04-09T02:26:56.037Z,99451.52
2023-04-09T02:29:24.621Z,99452.47
2023-04-09T02:31:53.917Z,99452.07
2023-04-09T02:34:28.767Z,99452.25
2023-04-09T02:36:57.585Z,99453.46
2023-04-09T02:39:27.464Z,99452.98
2023-04-09T02:41:56.446Z,99446.48
2023-04-09T02:44:25.334Z,99443.88
2023-04-09T02:46:54.567Z,99439.83
2023-04-09T02:49:24.376Z,99439.25
2023-04-09T02:51:52.931Z,99442.10
2023-04-09T02:54:21.539Z,99441.24
2023-04-09T02:56:50.300Z,99434.95
2023-04-09T02:59:18.788Z,99432.58
2023-04-09T03:01:48.979Z,99431.41
2023-04-09T03:04:17.869Z,99438.35
2023-04-09T03:06:46.562Z,99437.12
2023-04-09T03:09:18.970Z,99441.30
2023-04-09T03:11:47.437Z,99445.85
2023-04-09T03:14:16.339Z,99445.98
2023-04-09T03:16:50.892Z,99446.98
2023-04-09T03:19:20.570Z,99453.63
2023-04-09T03:21:49.610Z,99450.31
2023-04-09T03:24:18.559Z,99452.10
2023-04-09T03:26:46.941Z,99456.17
2023-04-09T03:29:17.300Z,99464.13
2023-04-09T03:31:46.158Z,99467.70
2023-04-09T03:34:14.926Z,99471.23
2023-04-09T03:36:43.336Z,99473.96
2023-04-09T03:39:17.736Z,99474.63
2023-04-09T03:41:46.818Z,99473.43
2023-04-09T03:44:17.829Z,99469.91
2023-04-09T03:47:09.188Z,99471.82
2023-04-09T03:49:38.628Z,99474.80
2023-04-09T03:52:16.688Z,99469.19
2023-04-09T03:54:47.114Z,99466.21
2023-04-09T03:57:20.097Z,99464.27
2023-04-09T03:59:52.601Z,99466.27
2023-04-09T04:02:22.927Z,99473.21
2023-04-09T04:05:00.204Z,99467.89
2023-04-09T04:07:33.065Z,99466.00
2023-04-09T04:10:09.327Z,99464.69
2023-04-09T04:12:44.154Z,99467.16
2023-04-09T04:15:20.414Z,99464.01
2023-04-09T04:17:53.768Z,99469.11
2023-04-09T04:20:36.694Z,99464.49
2023-04-09T04:23:28.772Z,99465.73
2023-04-09T04:26:10.316Z,99467.88
2023-04-09T04:28:39.490Z,99468.25
2023-04-09T04:31:10.442Z,99467.31
2023-04-09T04:33:40.775Z,99467.81
2023-04-09T04:36:13.448Z,99464.11
2023-04-09T04:38:46.488Z,99463.82
2023-04-09T04:41:36.263Z,99467.41
2023-04-09T04:44:10.850Z,99471.02
2023-04-09T04:46:42.243Z,99475.25
2023-04-09T04:49:10.951Z,99472.98
2023-04-09T04:51:49.440Z,99473.41
2023-04-09T04:54:18.054Z,99472.23
2023-04-09T04:56:51.241Z,99471.34
2023-04-09T04:59:43.517Z,99474.08
2023-04-09T05:02:13.809Z,99477.15
2023-04-09T05:04:53.752Z,99478.77
2023-04-09T05:07:31.725Z,99475.32
2023-04-09T05:10:00.334Z,99474.19
2023-04-09T05:12:36.522Z,99478.15
2023-04-09T05:15:09.098Z,99481.09
2023-04-09T05:17:43.431Z,99484.95
2023-04-09T05:20:12.766Z,99479.14
2023-04-09T05:22:49.960Z,99482.27
2023-04-09T05:25:18.860Z,99485.50
2023-04-09T05:27:48.242Z,99483.07
2023-04-09T05:30:16.832Z,99486.80
2023-04-09T05:32:46.911Z,99485.20
2023-04-09T05:35:16.142Z,99488.68
2023-04-09T05:37:45.169Z,99485.49
2023-04-09T05:40:15.265Z,99486.12
2023-04-09T05:42:46.210Z,99488.89
2023-04-09T05:45:21.452Z,99490.73
2023-04-09T05:47:55.096Z,99491.09
2023-04-09T05:50:25.053Z,99489.05
2023-04-09T05:53:01.017Z,99488.88
2023-04-09T05:55:37.686Z,99490.02
2023-04-09T05:58:06.103Z,99492.13
2023-04-09T06:00:35.365Z,99496.25
2023-04-09T06:03:05.301Z,99492.05
2023-04-09T06:05:33.893Z,99485.33
2023-04-09T06:08:03.164Z,99490.17
2023-04-09T06:10:34.836Z,99492.27
2023-04-09T06:13:03.510Z,99494.34
2023-04-09T06:15:35.274Z,99498.98
2023-04-09T06:18:04.409Z,99499.91
2023-04-09T06:20:32.988Z,99501.77
2023-04-09T06:23:07.161Z,99505.26
2023-04-09T06:25:36.864Z,99498.50
2023-04-09T06:28:05.688Z,99503.50
2023-04-09T06:30:37.512Z,99502.54
2023-04-09T06:33:06.545Z,99503.92
2023-04-09T06:35:35.144Z,99508.63
2023-04-09T06:38:07.158Z,99507.13
2023-04-09T06:40:39.218Z,99508.45
2023-04-09T06:43:12.518Z,99515.05
2023-04-09T06:45:52.354Z,99514.36
2023-04-09T06:48:20.957Z,99510.36
2023-04-09T06:50:51.004Z,99509.29
2023-04-09T06:53:20.338Z,99507.39
2023-04-09T06:55:49.163Z,99508.16
2023-04-09T06:58:21.412Z,99509.30
2023-04-09T07:00:49.840Z,99508.40
2023-04-09T07:03:19.922Z,99512.13
2023-04-09T07:05:49.942Z,99510.12
2023-04-09T07:08:18.530Z,99512.31
2023-04-09T07:10:52.950Z,99509.48
2023-04-09T07:13:22.853Z,99506.94
2023-04-09T07:15:51.231Z,99511.95
2023-04-09T07:18:20.444Z,99514.15
2023-04-09T07:20:48.902Z,99516.31
2023-04-09T07:23:17.536Z,99507.29
2023-04-09T07:25:48.642Z,99507.82
2023-04-09T07:28:18.552Z,99511.41
2023-04-09T07:30:47.333Z,99512.75
2023-04-09T07:33:17.146Z,99519.14
2023-04-09T07:35:47.182Z,99516.83
2023-04-09T07:38:16.511Z,99515.95
2023-04-09T07:40:47.504Z,99510.27
2023-04-09T07:43:17.148Z,99510.23
2023-04-09T07:45:46.208Z,99511.63
2023-04-09T07:48:16.133Z,99505.86
2023-04-09T07:50:48.508Z,99504.46
2023-04-09T07:53:18.681Z,99502.30
2023-04-09T07:55:47.412Z,99499.50
2023-04-09T07:58:16.598Z,99505.38
2023-04-09T08:00:50.242Z,99506.20
2023-04-09T08:03:19.704Z,99508.23
2023-04-09T08:05:48.697Z,99500.42
2023-04-09T08:08:22.608Z,99508.67
2023-04-09T08:10:51.842Z,99505.32
2023-04-09T08:13:20.290Z,99507.41
2023-04-09T08:15:56.377Z,99507.41
2023-04-09T08:18:25.873Z,99508.88
2023-04-09T08:20:54.751Z,99505.30
2023-04-09T08:23:24.243Z,99501.71
2023-04-09T08:25:53.254Z,99501.40
2023-04-09T08:28:21.926Z,99495.17
2023-04-09T08:30:51.324Z,99495.85
2023-04-09T08:33:20.225Z,99495.80
2023-04-09T08:35:48.698Z,99492.55
2023-04-09T08:38:21.885Z,99494.86
2023-04-09T08:40:50.485Z,99492.42
2023-04-09T08:43:18.850Z,99492.84
2023-04-09T08:45:47.844Z,99498.14
2023-04-09T08:48:16.766Z,99499.22
2023-04-09T08:50:48.801Z,99499.23
2023-04-09T08:53:17.484Z,99497.26
2023-04-09T08:55:46.885Z,99498.44
2023-04-09T08:58:15.368Z,99496.84
2023-04-09T09:00:45.636Z,99500.06
2023-04-09T09:03:15.988Z,99504.86
2023-04-09T09:05:45.503Z,99499.19
2023-04-09T09:08:24.323Z,99499.21
2023-04-09T09:10:52.940Z,99501.14
2023-04-09T09:13:26.285Z,99502.56
2023-04-09T09:15:56.630Z,99501.11
2023-04-09T09:18:45.000Z,99504.97
2023-04-09T09:21:15.896Z,99508.43
2023-04-09T09:23:46.306Z,99504.89
2023-04-09T09:26:19.553Z,99507.17
2023-04-09T09:28:50.160Z,99501.40
2023-04-09T09:31:20.028Z,99500.77
2023-04-09T09:33:50.720Z,99498.59
2023-04-09T09:36:33.269Z,99491.87
2023-04-09T09:39:04.191Z,99493.90
2023-04-09T09:41:38.611Z,99492.80
2023-04-09T09:44:07.807Z,99490.52
2023-04-09T09:46:41.601Z,99497.56
2023-04-09T09:49:10.608Z,99496.54
2023-04-09T09:51:40.146Z,99493.64
2023-04-09T09:54:10.851Z,99489.89
2023-04-09T09:56:39.712Z,99492.13
2023-04-09T09:59:22.232Z,99490.81
2023-04-09T10:01:55.905Z,99487.48
2023-04-09T10:04:24.716Z,99487.56
2023-04-09T10:06:53.709Z,99487.86
2023-04-09T10:09:22.124Z,99478.37
2023-04-09T10:11:50.820Z,99484.48
2023-04-09T10:14:19.369Z,99484.19
2023-04-09T10:16:47.959Z,99484.15
2023-04-09T10:19:17.455Z,99478.88
2023-04-09T10:21:56.169Z,99480.08
2023-04-09T10:24:24.555Z,99479.63
2023-04-09T10:26:58.580Z,99479.58
2023-04-09T10:29:30.010Z,99472.93
2023-04-09T10:32:06.927Z,99468.78
2023-04-09T10:34:40.225Z,99463.98
2023-04-09T10:37:10.417Z,99462.87
2023-04-09T10:39:43.906Z,99459.02
2023-04-09T10:42:45.767Z,99454.15
2023-04-09T10:45:22.897Z,99449.55
2023-04-09T10:47:54.510Z,99446.44
2023-04-09T10:50:32.648Z,99447.06
2023-04-09T10:53:02.836Z,99444.80
2023-04-09T10:55:41.987Z,99440.54
2023-04-09T10:58:13.223Z,99436.33
2023-04-09T11:00:46.833Z,99431.65
2023-04-09T11:03:22.081Z,99426.81
2023-04-09T11:06:09.371Z,99423.33
2023-04-09T11:08:39.806Z,99427.64
2023-04-09T11:11:09.424Z,99421.84
2023-04-09T11:13:41.884Z,99418.84
2023-04-09T11:16:22.996Z,99415.27
2023-04-09T11:19:03.232Z,99409.83
2023-04-09T11:21:32.001Z,99408.46
2023-04-09T11:24:03.558Z,99409.99
2023-04-09T11:26:37.642Z,99407.59
2023-04-09T11:29:09.047Z,99407.11
2023-04-09T11:31:39.715Z,99397.83
2023-04-09T11:34:34.343Z,99396.09
2023-04-09T11:37:07.148Z,99396.88
2023-04-09T11:39:38.982Z,99391.58
2023-04-09T11:42:09.449Z,99393.48
2023-04-09T11:44:47.162Z,99384.80
2023-04-09T11:47:32.637Z,99388.54
2023-04-09T11:50:03.150Z,99386.19
2023-04-09T11:52:36.922Z,99381.21
2023-04-09T11:59:29.602Z,99378.93
2023-04-09T12:02:19.232Z,99375.66
2023-04-09T12:04:51.235Z,99378.58
2023-04-09T12:07:21.098Z,99375.86
2023-04-09T12:09:58.167Z,99374.80
2023-04-09T12:12:28.255Z,99375.02
2023-04-09T12:15:25.730Z,99369.00
2023-04-09T12:17:57.996Z,99365.05
2023-04-09T12:20:35.142Z,99371.08
2023-04-09T12:23:06.415Z,99369.33
2023-04-09T12:25:41.555Z,99361.90
2023-04-09T12:28:15.653Z,99360.02
2023-04-09T12:30:45.694Z,99352.83
2023-04-09T12:33:15.502Z,99349.27
2023-04-09T12:35:47.941Z,99352.88
2023-04-09T12:38:16.672Z,99350.33
2023-04-09T12:40:45.660Z,99352.77
2023-04-09T12:43:15.921Z,99350.98
2023-04-09T12:45:45.734Z,99357.27
2023-04-09T12:48:14.161Z,99354.48
2023-04-09T12:50:45.723Z,99359.16
2023-04-09T12:53:15.533Z,99360.95
2023-04-09T12:55:45.237Z,99358.06
2023-04-09T12:58:15.049Z,99351.64
2023-04-09T13:00:44.404Z,99355.66
2023-04-09T13:03:16.108Z,99362.01
2023-04-09T13:05:44.935Z,99363.52
2023-04-09T13:08:13.613Z,99363.64
2023-04-09T13:10:46.672Z,99361.68
2023-04-09T13:13:15.873Z,99359.37
2023-04-09T13:15:45.797Z,99360.30
2023-04-09T13:18:18.068Z,99355.77
2023-04-09T13:20:46.843Z,99357.13
2023-04-09T13:23:16.771Z,99360.09
2023-04-09T13:25:50.465Z,99361.70
2023-04-09T13:28:22.649Z,99371.53
2023-04-09T13:30:52.985Z,99384.75
2023-04-09T13:33:41.511Z,99401.36
2023-04-09T13:36:10.126Z,99398.80
2023-04-09T13:38:42.122Z,99384.31
2023-04-09T13:41:10.821Z,99378.35
2023-04-09T13:43:39.259Z,99379.69
2023-04-09T13:46:10.946Z,99385.73
2023-04-09T13:48:41.703Z,99391.48
2023-04-09T13:51:12.876Z,99396.17
2023-04-09T13:53:43.478Z,99396.22
2023-04-09T13:56:12.195Z,99409.90
2023-04-09T13:58:43.771Z,99420.31
2023-04-09T14:01:12.221Z,99429.80
2023-04-09T14:03:40.956Z,99430.80
2023-04-09T14:06:10.212Z,99432.02
2023-04-09T14:08:38.664Z,99428.89
2023-04-09T14:11:07.351Z,99422.94
2023-04-09T14:13:36.157Z,99418.80
2023-04-09T14:16:05.978Z,99414.16
2023-04-09T14:18:35.660Z,99410.22
2023-04-09T14:21:09.964Z,99406.44
2023-04-09T14:23:42.149Z,99397.45
2023-04-09T14:26:12.382Z,99396.17
2023-04-09T14:28:45.190Z,99393.55
2023-04-09T14:31:22.762Z,99389.70
2023-04-09T14:33:54.914Z,99390.72
2023-04-09T14:36:24.936Z,99389.99
2023-04-09T14:39:00.208Z,99383.81
2023-04-09T14:41:34.490Z,99385.63
2023-04-09T14:44:03.010Z,99384.52
2023-04-09T14:46:35.962Z,99377.63
2023-04-09T14:49:08.641Z,99377.26
2023-04-09T14:51:39.078Z,99378.27
2023-04-09T14:54:22.728Z,99372.79
2023-04-09T14:56:53.433Z,99369.73
2023-04-09T14:59:29.182Z,99364.08
2023-04-09T15:02:08.944Z,99357.56
2023-04-09T15:04:37.779Z,99352.57
2023-04-09T15:07:12.373Z,99340.63
2023-04-09T15:09:42.263Z,99341.63
2023-04-09T15:12:10.847Z,99342.96
2023-04-09T15:14:45.000Z,99336.32
2023-04-09T15:17:31.454Z,99332.20
2023-04-09T15:20:09.125Z,99330.95
2023-04-09T15:22:57.396Z,99337.22
2023-04-09T15:25:31.724Z,99332.38
2023-04-09T15:28:02.481Z,99334.98
2023-04-09T15:30:31.334Z,99337.10
2023-04-09T15:33:04.808Z,99333.60
2023-04-09T15:35:39.856Z,99325.27
2023-04-09T15:38:17.393Z,99325.55
2023-04-09T15:41:01.305Z,99326.17
2023-04-09T15:43:30.515Z,99319.31
2023-04-09T15:46:10.849Z,99315.18
2023-04-09T15:48:40.051Z,99310.25
2023-04-09T15:51:28.251Z,99304.45
2023-04-09T15:53:59.036Z,99307.27
2023-04-09T15:56:40.618Z,99303.16
2023-04-09T15:59:13.215Z,99301.43
2023-04-09T16:01:43.492Z,99297.56
2023-04-09T16:04:12.147Z,99301.45
2023-04-09T16:07:02.038Z,99295.17
2023-04-09T16:09:41.642Z,99300.20
2023-04-09T16:12:13.084Z,99304.64
2023-04-09T16:14:44.949Z,99303.16
2023-04-09T16:17:19.290Z,99304.41
2023-04-09T16:19:50.436Z,99301.41
2023-04-09T16:22:20.323Z,99294.83
2023-04-09T16:24:49.146Z,99297.09
2023-04-09T16:27:23.745Z,99305.40
2023-04-09T16:29:57.752Z,99307.42
2023-04-09T16:32:46.095Z,99306.70
2023-04-09T16:35:15.720Z,99311.95
2023-04-09T16:38:03.327Z,99311.44
2023-04-09T16:40:31.817Z,99313.52
2023-04-09T16:43:06.122Z,99317.13
2023-04-09T16:45:37.174Z,99322.25
2023-04-09T16:48:26.143Z,99324.15
2023-04-09T16:51:03.850Z,99327.55
2023-04-09T16:53:44.624Z,99325.63
2023-04-09T16:56:16.868Z,99327.95
2023-04-09T16:58:46.776Z,99320.20
2023-04-09T17:01:21.049Z,99322.75
2023-04-09T17:03:49.820Z,99326.48
2023-04-09T17:06:18.983Z,99331.08
2023-04-09T17:08:48.201Z,99332.79
2023-04-09T17:11:18.405Z,99332.02
2023-04-09T17:13:52.317Z,99332.86
2023-04-09T17:16:25.026Z,99338.16
2023-04-09T17:18:54.291Z,99341.50
2023-04-09T17:21:27.483Z,99347.73
2023-04-09T17:23:57.385Z,99353.64
2023-04-09T17:26:26.010Z,99363.48
2023-04-09T17:28:54.855Z,99366.29
2023-04-09T17:31:24.585Z,99373.19
2023-04-09T17:34:13.740Z,99378.81
2023-04-09T17:36:42.845Z,99386.39
2023-04-09T17:39:12.466Z,99380.00
2023-04-09T17:41:42.999Z,99380.54
2023-04-09T17:44:13.601Z,99388.21
2023-04-09T17:46:42.615Z,99386.20
2023-04-09T17:49:12.108Z,99383.68
2023-04-09T17:51:44.705Z,99386.31
2023-04-09T17:54:13.486Z,99373.50
2023-04-09T17:56:43.090Z,99366.89
2023-04-09T17:59:12.012Z,99372.25
2023-04-09T18:02:01.096Z,99369.80
2023-04-09T18:04:30.281Z,99375.41
2023-04-09T18:06:59.021Z,99379.26
2023-04-09T18:09:27.701Z,99373.36
2023-04-09T18:11:57.960Z,99371.48
2023-04-09T18:14:32.688Z,99377.02
2023-04-09T18:17:03.807Z,99380.89
2023-04-09T18:19:32.883Z,99380.73
2023-04-09T18:22:03.337Z,99383.12
2023-04-09T18:24:33.842Z,99384.98
2023-04-09T18:27:04.392Z,99386.50
2023-04-09T18:29:37.398Z,99385.73
2023-04-09T18:32:05.846Z,99381.20
2023-04-09T18:34:35.443Z,99377.67
2023-04-09T18:37:04.149Z,99374.40
2023-04-09T18:39:34.585Z,99374.59
2023-04-09T18:42:04.346Z,99368.75
2023-04-09T18:44:37.624Z,99368.08
2023-04-09T18:47:12.999Z,99364.96
2023-04-09T18:50:12.591Z,99359.45
2023-04-09T18:52:51.643Z,99362.96
2023-04-09T18:55:21.413Z,99360.13
2023-04-09T18:57:53.218Z,99362.66
2023-04-09T19:00:21.903Z,99358.20
2023-04-09T19:02:51.062Z,99358.52
2023-04-09T19:05:20.204Z,99352.02
2023-04-09T19:07:48.876Z,99351.80
2023-04-09T19:10:17.593Z,99352.61
2023-04-09T19:12:51.215Z,99351.65
2023-04-09T19:15:22.018Z,99345.71
2023-04-09T19:17:50.918Z,99345.19
2023-04-09T19:20:19.782Z,99345.91
2023-04-09T19:22:49.609Z,99341.72
2023-04-09T19:25:25.093Z,99340.45
2023-04-09T19:27:54.467Z,99335.79
2023-04-09T19:30:23.026Z,99334.95
2023-04-09T19:33:10.296Z,99328.73
2023-04-09T19:35:41.346Z,99327.70
2023-04-09T19:38:15.334Z,99327.48
2023-04-09T19:40:46.477Z,99324.27
2023-04-09T19:43:16.665Z,99320.92
2023-04-09T19:45:45.444Z,99317.36
2023-04-09T19:48:13.847Z,99317.46
2023-04-09T19:50:48.656Z,99309.79
2023-04-09T19:53:18.773Z,99304.65
2023-04-09T19:55:47.195Z,99308.77
2023-04-09T19:58:16.766Z,99308.20
2023-04-09T20:00:45.010Z,99309.84
2023-04-09T20:03:14.384Z,99309.98
2023-04-09T20:05:45.372Z,99307.80
2023-04-09T20:08:15.875Z,99308.52
2023-04-09T20:10:47.490Z,99311.05
2023-04-09T20:13:18.406Z,99323.23
2023-04-09T20:15:47.085Z,99329.95
2023-04-09T20:18:20.609Z,99326.33
2023-04-09T20:20:51.140Z,99322.76
2023-04-09T20:23:19.698Z,99322.91
2023-04-09T20:25:56.930Z,99318.70
2023-04-09T20:28:26.414Z,99317.19
2023-04-09T20:30:54.859Z,99316.59
2023-04-09T20:33:23.281Z,99317.00
2023-04-09T20:35:53.405Z,99315.16
2023-04-09T20:38:22.671Z,99317.34
2023-04-09T20:40:52.989Z,99317.00
2023-04-09T20:43:21.569Z,99324.08
2023-04-09T20:45:59.917Z,99325.70
2023-04-09T20:48:31.854Z,99327.15
2023-04-09T20:51:00.943Z,99325.63
2023-04-09T20:53:32.490Z,99323.00
2023-04-09T20:56:52.980Z,99324.52
2023-04-09T20:59:23.716Z,99324.61
2023-04-09T21:01:52.941Z,99326.63
2023-04-09T21:04:22.111Z,99317.88
2023-04-09T21:06:52.238Z,99310.34
2023-04-09T21:09:20.873Z,99303.05
2023-04-09T21:11:49.157Z,99300.92
2023-04-09T21:14:18.809Z,99296.39
2023-04-09T21:24:28.198Z,99290.80
2023-04-09T21:26:57.802Z,99293.05
2023-04-09T21:29:28.442Z,99284.35
2023-04-09T21:31:57.636Z,99279.19
2023-04-09T21:34:26.245Z,99277.21
2023-04-09T21:36:55.626Z,99272.41
2023-04-09T21:39:23.999Z,99270.73
2023-04-09T21:41:57.643Z,99273.83
2023-04-09T21:44:26.080Z,99266.95
2023-04-09T21:46:54.573Z,99267.58
2023-04-09T21:49:23.171Z,99267.15
2023-04-09T21:51:52.892Z,99268.98
2023-04-09T21:54:21.343Z,99263.95
2023-04-09T21:56:49.939Z,99268.16
2023-04-09T21:59:20.452Z,99270.06
2023-04-09T22:01:50.097Z,99268.17
2023-04-09T22:04:18.890Z,99270.71
2023-04-09T22:06:48.766Z,99273.11
2023-04-09T22:09:18.043Z,99270.46
2023-04-09T22:11:46.542Z,99273.71
2023-04-09T22:14:18.001Z,99270.60
2023-04-09T22:16:47.805Z,99266.14
2023-04-09T22:19:16.800Z,99267.64
2023-04-09T22:21:50.833Z,99265.86
2023-04-09T22:24:21.704Z,99267.15
2023-04-09T22:26:50.155Z,99266.48
2023-04-09T22:29:20.355Z,99265.36
2023-04-09T22:31:49.353Z,99265.31
2023-04-09T22:34:21.157Z,99260.90
2023-04-09T22:36:51.325Z,99261.25
2023-04-09T22:39:19.875Z,99261.91
2023-04-09T22:41:48.390Z,99261.56
2023-04-09T22:44:17.674Z,99263.63
2023-04-09T22:46:49.996Z,99259.21
2023-04-09T22:49:18.484Z,99258.16
2023-04-09T22:51:49.174Z,99256.69
2023-04-09T22:54:20.311Z,99258.73
2023-04-09T22:56:49.834Z,99254.88
2023-04-09T22:59:19.965Z,99257.91
2023-04-09T23:01:50.226Z,99253.17
2023-04-09T23:04:24.227Z,99253.30
2023-04-09T23:06:53.814Z,99256.82
2023-04-09T23:09:22.359Z,99258.29
2023-04-09T23:11:51.448Z,99257.70
2023-04-09T23:14:19.723Z,99254.98
2023-04-09T23:16:48.306Z,99248.94
2023-04-09T23:19:23.169Z,99249.08
2023-04-09T23:21:52.647Z,99245.25
2023-04-09T23:24:21.029Z,99243.58
2023-04-09T23:26:50.671Z,99244.70
2023-04-09T23:29:19.308Z,99247.75
2023-04-09T23:31:48.955Z,99239.20
2023-04-09T23:34:17.614Z,99239.40
2023-04-09T23:36:46.184Z,99240.21
2023-04-09T23:39:18.144Z,99238.14
2023-04-09T23:41:47.160Z,99238.11
2023-04-09T23:44:19.767Z,99235.70
2023-04-09T23:46:48.637Z,99236.90
2023-04-09T23:49:17.210Z,99237.81
2023-04-09T23:51:53.359Z,99241.46
2023-04-09T23:54:22.351Z,99240.66
2023-04-09T23:57:04.649Z,99240.09
2023-04-09T23:59:36.135Z,99237.81
